Jnctn City, Ohio
Current Conditions -  °F | °C
As of 10:53 AM on Monday 24 Nov 2014 (Local Time) from KLHQ Reporting Station
Broken Clouds Broken Clouds  
Wind Chill: 64°   Ceiling: 7500
Heat Index: 64°   Visibility: 10mi
Dew Point: 47°   Wind: 22mph
Humidity: 54%   Direction: 210°SSW
Pressure: 29.38"   Gusts: 41mph
Location:  39.7014°N, 82.3065°W
Report Text: KLHQ 241553Z AUTO 21019G36KT 10SM FEW055 BKN075 18/08 A2938 RMK AO2 PK WND 23040/1516 SLP945 T01780083
Loading
Personal Weather Stations






























Interactive Weather Map New forecast layout! Learn more

10-Day Weather Forecast

Advertisements
Track Severe Weather on mobile